EST,Max TemperatureF,Mean TemperatureF,Min TemperatureF,Max Dew PointF,MeanDew PointF,Min DewpointF,Max Humidity, Mean Humidity, Min Humidity, Max Sea Level PressureIn, Mean Sea Level PressureIn, Min Sea Level PressureIn, Max VisibilityMiles, Mean VisibilityMiles, Min VisibilityMiles, Max Wind SpeedMPH, Mean Wind SpeedMPH, Max Gust SpeedMPH,PrecipitationIn, CloudCover, Events, WindDirDegrees
2013-2-1,33,29,24,10,7,1,49,39,32,30.21,29.94,29.77,10,10,10,20,15,30,0.00,3,,283
2013-2-2,30,24,18,20,13,5,81,57,38,30.31,30.17,30.09,10,8,2,15,11,24,0.00,4,Snow,249
2013-2-3,32,26,17,21,17,11,93,73,50,30.09,29.92,29.78,10,8,2,13,5,,0.00,5,Snow,310
2013-2-4,32,24,17,18,10,6,78,53,34,30.00,29.91,29.80,10,10,8,21,8,30,0.00,3,,278
2013-2-5,30,28,26,28,23,12,89,79,53,30.00,29.95,29.92,10,8,1,12,5,16,0.03,8,Snow,38
2013-2-6,39,32,26,28,21,2,96,67,30,30.36,30.09,29.93,10,8,3,17,6,30,0.00,4,Snow,313
2013-2-7,34,30,25,22,9,1,61,44,29,30.53,30.46,30.36,10,10,10,13,7,18,0.00,1,,42
2013-2-8,37,34,27,34,31,22,100,88,64,30.36,29.81,29.49,10,4,0,33,18,45,1.80,8,Fog-Rain-Snow,47
2013-2-9,28,24,21,23,17,6,92,71,45,30.27,29.87,29.65,10,3,0,31,22,43,0.08,4,Fog-Snow,324
2013-2-10,33,20,8,15,7,1,87,60,38,30.47,30.40,30.30,10,10,3,12,7,22,0.00,0,,307
2013-2-11,48,33,18,46,38,14,100,93,84,30.35,29.91,29.68,10,4,0,14,5,25,0.56,6,Fog-Rain,211
2013-2-12,44,37,28,39,28,21,100,68,45,29.96,29.83,29.72,10,9,2,25,10,38,0.00,2,,275
2013-2-13,41,30,18,28,22,14,92,69,49,29.95,29.83,29.71,10,9,1,8,3,,0.01,2,Snow,354
2013-2-14,43,32,21,30,25,19,100,82,41,30.04,29.88,29.71,10,5,0,12,6,,0.05,3,Fog-Snow,322
2013-2-15,46,34,21,37,30,19,100,88,68,30.06,30.01,29.95,10,3,0,13,3,21,0.00,2,Fog,213
2013-2-16,39,34,30,36,27,22,89,75,57,29.95,29.86,29.68,10,7,2,18,10,29,0.00,8,Snow,351
2013-2-17,30,24,19,25,13,1,80,59,29,29.86,29.66,29.57,10,6,1,31,18,45,0.00,5,Snow,330
2013-2-18,32,24,17,9,6,2,71,47,35,30.25,30.13,29.90,10,10,10,32,20,43,0.00,0,,289
2013-2-19,46,31,16,45,34,9,100,83,60,30.24,29.87,29.66,10,8,2,15,6,25,0.30,5,Rain,220
2013-2-20,37,32,25,29,15,8,70,50,37,29.94,29.80,29.68,10,10,10,23,15,36,0.00,3,,282
2013-2-21,36,28,21,15,12,10,61,50,39,30.26,30.02,29.93,10,10,10,24,14,36,0.00,0,,304
2013-2-22,34,29,26,20,17,15,69,63,56,30.40,30.33,30.25,10,10,10,13,10,23,0.00,0,,359
2013-2-23,41,39,37,37,36,35,93,91,82,30.12,29.98,29.79,10,4,2,16,10,24,0.12,8,Rain,79
2013-2-24,42,38,33,37,33,28,93,83,70,29.93,29.79,29.71,10,8,2,17,13,25,0.01,8,Rain-Snow,337
2013-2-25,46,36,26,30,26,21,82,68,44,30.25,30.13,29.95,10,10,10,10,6,,0.00,3,,325
2013-2-26,43,38,34,36,31,28,87,75,58,30.33,30.22,29.99,10,10,5,17,5,28,0.13,7,Rain,89
2013-2-27,48,44,36,46,42,31,93,90,79,29.94,29.65,29.54,10,4,2,25,16,41,1.24,7,Rain,110
2013-2-28,46,40,33,42,37,31,93,88,73,29.64,29.60,29.56,10,8,2,10,2,,0.09,8,Rain,233